sensor_id;sensor_type;location;lat;lon;timestamp;temperature;humidity
17948;DHT22;9099;47.958;11.366;2023-09-18T00:00:30;20.10;99.90
17948;DHT22;9099;47.958;11.366;2023-09-18T00:02:58;20.00;99.90
17948;DHT22;9099;47.958;11.366;2023-09-18T00:05:28;19.90;99.90
17948;DHT22;9099;47.958;11.366;2023-09-18T00:07:55;20.00;99.90
17948;DHT22;9099;47.958;11.366;2023-09-18T00:10:22;20.00;99.90
17948;DHT22;9099;47.958;11.366;2023-09-18T00:12:51;19.90;99.90
17948;DHT22;9099;47.958;11.366;2023-09-18T00:15:18;19.90;99.90
17948;DHT22;9099;47.958;11.366;2023-09-18T00:17:45;19.90;99.90
17948;DHT22;9099;47.958;11.366;2023-09-18T00:20:12;19.90;99.90
17948;DHT22;9099;47.958;11.366;2023-09-18T00:22:39;19.70;99.90
17948;DHT22;9099;47.958;11.366;2023-09-18T00:25:06;19.70;99.90
17948;DHT22;9099;47.958;11.366;2023-09-18T00:27:33;19.80;99.90
17948;DHT22;9099;47.958;11.366;2023-09-18T00:30:03;19.70;99.90
17948;DHT22;9099;47.958;11.366;2023-09-18T00:32:31;19.70;99.90
17948;DHT22;9099;47.958;11.366;2023-09-18T00:34:58;19.70;99.90
17948;DHT22;9099;47.958;11.366;2023-09-18T00:37:25;19.70;99.90
17948;DHT22;9099;47.958;11.366;2023-09-18T00:39:52;19.70;99.90
17948;DHT22;9099;47.958;11.366;2023-09-18T00:42:19;19.70;99.90
17948;DHT22;9099;47.958;11.366;2023-09-18T00:44:48;19.70;99.90
17948;DHT22;9099;47.958;11.366;2023-09-18T00:47:16;19.90;99.90
17948;DHT22;9099;47.958;11.366;2023-09-18T00:49:47;19.90;99.90
17948;DHT22;9099;47.958;11.366;2023-09-18T00:52:15;19.70;99.90
17948;DHT22;9099;47.958;11.366;2023-09-18T00:54:44;19.70;99.90
17948;DHT22;9099;47.958;11.366;2023-09-18T00:57:11;19.50;99.90
17948;DHT22;9099;47.958;11.366;2023-09-18T00:59:39;19.40;99.90
17948;DHT22;9099;47.958;11.366;2023-09-18T01:02:06;19.30;99.90
17948;DHT22;9099;47.958;11.366;2023-09-18T01:04:35;19.40;99.90
17948;DHT22;9099;47.958;11.366;2023-09-18T01:07:02;19.50;99.90
17948;DHT22;9099;47.958;11.366;2023-09-18T01:09:29;19.60;99.90
17948;DHT22;9099;47.958;11.366;2023-09-18T01:12:01;19.70;99.90
17948;DHT22;9099;47.958;11.366;2023-09-18T01:14:35;19.70;99.90
17948;DHT22;9099;47.958;11.366;2023-09-18T01:17:05;19.80;99.90
17948;DHT22;9099;47.958;11.366;2023-09-18T01:19:39;20.00;99.90
17948;DHT22;9099;47.958;11.366;2023-09-18T01:22:07;20.00;99.90
17948;DHT22;9099;47.958;11.366;2023-09-18T01:24:37;20.00;99.90
17948;DHT22;9099;47.958;11.366;2023-09-18T01:27:06;19.90;99.90
17948;DHT22;9099;47.958;11.366;2023-09-18T01:29:33;19.80;99.90
17948;DHT22;9099;47.958;11.366;2023-09-18T01:32:00;19.80;99.90
17948;DHT22;9099;47.958;11.366;2023-09-18T01:34:31;19.70;99.90
17948;DHT22;9099;47.958;11.366;2023-09-18T01:36:59;19.70;99.90
17948;DHT22;9099;47.958;11.366;2023-09-18T01:39:28;19.80;99.90
17948;DHT22;9099;47.958;11.366;2023-09-18T01:41:59;19.80;99.90
17948;DHT22;9099;47.958;11.366;2023-09-18T01:44:27;19.80;99.90
17948;DHT22;9099;47.958;11.366;2023-09-18T01:46:56;19.60;99.90
17948;DHT22;9099;47.958;11.366;2023-09-18T01:49:31;19.50;99.90
17948;DHT22;9099;47.958;11.366;2023-09-18T01:51:59;19.50;99.90
17948;DHT22;9099;47.958;11.366;2023-09-18T01:54:26;19.40;99.90
17948;DHT22;9099;47.958;11.366;2023-09-18T01:56:53;19.20;99.90
17948;DHT22;9099;47.958;11.366;2023-09-18T01:59:21;19.20;99.90
17948;DHT22;9099;47.958;11.366;2023-09-18T02:01:48;19.10;99.90
17948;DHT22;9099;47.958;11.366;2023-09-18T02:04:15;19.20;99.90
17948;DHT22;9099;47.958;11.366;2023-09-18T02:06:42;19.20;99.90
17948;DHT22;9099;47.958;11.366;2023-09-18T02:09:09;19.20;99.90
17948;DHT22;9099;47.958;11.366;2023-09-18T02:11:37;19.40;99.90
17948;DHT22;9099;47.958;11.366;2023-09-18T02:14:05;19.50;99.90
17948;DHT22;9099;47.958;11.366;2023-09-18T02:16:34;19.50;99.90
17948;DHT22;9099;47.958;11.366;2023-09-18T02:19:02;19.60;99.90
17948;DHT22;9099;47.958;11.366;2023-09-18T02:21:29;19.60;99.90
17948;DHT22;9099;47.958;11.366;2023-09-18T02:23:56;19.70;99.90
17948;DHT22;9099;47.958;11.366;2023-09-18T02:26:23;19.50;99.90
17948;DHT22;9099;47.958;11.366;2023-09-18T02:28:52;19.40;99.90
17948;DHT22;9099;47.958;11.366;2023-09-18T02:31:20;19.30;99.90
17948;DHT22;9099;47.958;11.366;2023-09-18T02:33:48;19.40;99.90
17948;DHT22;9099;47.958;11.366;2023-09-18T02:36:15;19.40;99.90
17948;DHT22;9099;47.958;11.366;2023-09-18T02:38:42;19.40;99.90
17948;DHT22;9099;47.958;11.366;2023-09-18T02:41:09;19.40;99.90
17948;DHT22;9099;47.958;11.366;2023-09-18T02:43:36;19.40;99.90
17948;DHT22;9099;47.958;11.366;2023-09-18T02:46:03;19.50;99.90
17948;DHT22;9099;47.958;11.366;2023-09-18T02:48:31;19.50;99.90
17948;DHT22;9099;47.958;11.366;2023-09-18T02:50:59;19.50;99.90
17948;DHT22;9099;47.958;11.366;2023-09-18T02:53:26;19.60;99.90
17948;DHT22;9099;47.958;11.366;2023-09-18T02:55:55;19.60;99.90
17948;DHT22;9099;47.958;11.366;2023-09-18T02:58:22;19.60;99.90
17948;DHT22;9099;47.958;11.366;2023-09-18T03:00:52;19.60;99.90
17948;DHT22;9099;47.958;11.366;2023-09-18T03:03:20;19.50;99.90
17948;DHT22;9099;47.958;11.366;2023-09-18T03:05:47;19.40;99.90
17948;DHT22;9099;47.958;11.366;2023-09-18T03:08:15;19.30;99.90
17948;DHT22;9099;47.958;11.366;2023-09-18T03:10:43;19.20;99.90
17948;DHT22;9099;47.958;11.366;2023-09-18T03:13:12;19.10;99.90
17948;DHT22;9099;47.958;11.366;2023-09-18T03:15:39;19.10;99.90
17948;DHT22;9099;47.958;11.366;2023-09-18T03:18:06;19.30;99.90
17948;DHT22;9099;47.958;11.366;2023-09-18T03:20:33;19.30;99.90
17948;DHT22;9099;47.958;11.366;2023-09-18T03:23:02;19.40;99.90
17948;DHT22;9099;47.958;11.366;2023-09-18T03:25:30;19.30;99.90
17948;DHT22;9099;47.958;11.366;2023-09-18T03:27:57;19.40;99.90
17948;DHT22;9099;47.958;11.366;2023-09-18T03:30:25;19.50;99.90
17948;DHT22;9099;47.958;11.366;2023-09-18T03:32:52;19.50;99.90
17948;DHT22;9099;47.958;11.366;2023-09-18T03:35:20;19.50;99.90
17948;DHT22;9099;47.958;11.366;2023-09-18T03:37:49;19.40;99.90
17948;DHT22;9099;47.958;11.366;2023-09-18T03:40:17;19.30;99.90
17948;DHT22;9099;47.958;11.366;2023-09-18T03:42:45;19.20;99.90
17948;DHT22;9099;47.958;11.366;2023-09-18T03:45:12;19.30;99.90
17948;DHT22;9099;47.958;11.366;2023-09-18T03:47:40;19.20;99.90
17948;DHT22;9099;47.958;11.366;2023-09-18T03:50:08;19.20;99.90
17948;DHT22;9099;47.958;11.366;2023-09-18T03:52:36;19.30;99.90
17948;DHT22;9099;47.958;11.366;2023-09-18T03:55:05;19.30;99.90
17948;DHT22;9099;47.958;11.366;2023-09-18T03:57:32;19.20;99.90
17948;DHT22;9099;47.958;11.366;2023-09-18T04:00:00;19.10;99.90
17948;DHT22;9099;47.958;11.366;2023-09-18T04:02:27;19.00;99.90
17948;DHT22;9099;47.958;11.366;2023-09-18T04:04:54;19.00;99.90
17948;DHT22;9099;47.958;11.366;2023-09-18T04:07:21;19.00;99.90
17948;DHT22;9099;47.958;11.366;2023-09-18T04:09:48;19.00;99.90
17948;DHT22;9099;47.958;11.366;2023-09-18T04:12:15;19.00;99.90
17948;DHT22;9099;47.958;11.366;2023-09-18T04:14:42;18.90;99.90
17948;DHT22;9099;47.958;11.366;2023-09-18T04:17:10;18.90;99.90
17948;DHT22;9099;47.958;11.366;2023-09-18T04:19:37;18.90;99.90
17948;DHT22;9099;47.958;11.366;2023-09-18T04:22:04;18.90;99.90
17948;DHT22;9099;47.958;11.366;2023-09-18T04:24:31;18.90;99.90
17948;DHT22;9099;47.958;11.366;2023-09-18T04:26:58;18.90;99.90
17948;DHT22;9099;47.958;11.366;2023-09-18T04:29:25;18.90;99.90
17948;DHT22;9099;47.958;11.366;2023-09-18T04:31:52;18.90;99.90
17948;DHT22;9099;47.958;11.366;2023-09-18T04:34:21;19.00;99.90
17948;DHT22;9099;47.958;11.366;2023-09-18T04:36:48;19.10;99.90
17948;DHT22;9099;47.958;11.366;2023-09-18T04:39:14;19.10;99.90
17948;DHT22;9099;47.958;11.366;2023-09-18T04:41:41;19.10;99.90
17948;DHT22;9099;47.958;11.366;2023-09-18T04:44:08;19.30;99.90
17948;DHT22;9099;47.958;11.366;2023-09-18T04:46:38;19.20;99.90
17948;DHT22;9099;47.958;11.366;2023-09-18T04:49:08;19.20;99.90
17948;DHT22;9099;47.958;11.366;2023-09-18T04:51:37;19.00;99.90
17948;DHT22;9099;47.958;11.366;2023-09-18T04:54:05;19.10;99.90
17948;DHT22;9099;47.958;11.366;2023-09-18T04:56:32;19.00;99.90
17948;DHT22;9099;47.958;11.366;2023-09-18T04:58:58;18.80;99.90
17948;DHT22;9099;47.958;11.366;2023-09-18T05:01:25;18.70;99.90
17948;DHT22;9099;47.958;11.366;2023-09-18T05:03:53;18.50;99.90
17948;DHT22;9099;47.958;11.366;2023-09-18T05:06:20;18.50;99.90
17948;DHT22;9099;47.958;11.366;2023-09-18T05:08:48;18.40;99.90
17948;DHT22;9099;47.958;11.366;2023-09-18T05:11:15;18.30;99.90
17948;DHT22;9099;47.958;11.366;2023-09-18T05:13:44;18.30;99.90
17948;DHT22;9099;47.958;11.366;2023-09-18T05:16:11;18.20;99.90
17948;DHT22;9099;47.958;11.366;2023-09-18T05:18:39;18.20;99.90
17948;DHT22;9099;47.958;11.366;2023-09-18T05:21:06;18.20;99.90
17948;DHT22;9099;47.958;11.366;2023-09-18T05:23:35;18.20;99.90
17948;DHT22;9099;47.958;11.366;2023-09-18T05:26:03;18.20;99.90
17948;DHT22;9099;47.958;11.366;2023-09-18T05:28:30;18.30;99.90
17948;DHT22;9099;47.958;11.366;2023-09-18T05:30:57;18.40;99.90
17948;DHT22;9099;47.958;11.366;2023-09-18T05:33:24;18.50;99.90
17948;DHT22;9099;47.958;11.366;2023-09-18T05:35:51;18.70;99.90
17948;DHT22;9099;47.958;11.366;2023-09-18T05:38:18;18.80;99.90
17948;DHT22;9099;47.958;11.366;2023-09-18T05:40:45;19.00;99.90
17948;DHT22;9099;47.958;11.366;2023-09-18T05:43:14;19.10;99.90
17948;DHT22;9099;47.958;11.366;2023-09-18T05:45:41;19.30;99.90
17948;DHT22;9099;47.958;11.366;2023-09-18T05:48:08;19.60;99.90
17948;DHT22;9099;47.958;11.366;2023-09-18T05:50:35;20.00;99.90
17948;DHT22;9099;47.958;11.366;2023-09-18T05:53:03;20.50;99.90
17948;DHT22;9099;47.958;11.366;2023-09-18T05:55:30;20.90;99.90
17948;DHT22;9099;47.958;11.366;2023-09-18T05:58:00;21.40;99.90
17948;DHT22;9099;47.958;11.366;2023-09-18T06:00:30;22.00;99.90
17948;DHT22;9099;47.958;11.366;2023-09-18T06:02:57;22.60;99.90
17948;DHT22;9099;47.958;11.366;2023-09-18T06:05:24;23.10;99.90
17948;DHT22;9099;47.958;11.366;2023-09-18T06:07:51;23.70;99.90
17948;DHT22;9099;47.958;11.366;2023-09-18T06:10:18;24.10;99.90
17948;DHT22;9099;47.958;11.366;2023-09-18T06:12:45;24.20;99.90
17948;DHT22;9099;47.958;11.366;2023-09-18T06:15:12;24.40;99.90
17948;DHT22;9099;47.958;11.366;2023-09-18T06:17:42;24.50;99.90
17948;DHT22;9099;47.958;11.366;2023-09-18T06:20:10;24.90;99.90
17948;DHT22;9099;47.958;11.366;2023-09-18T06:22:38;25.40;99.90
17948;DHT22;9099;47.958;11.366;2023-09-18T06:25:06;25.80;99.90
17948;DHT22;9099;47.958;11.366;2023-09-18T06:27:35;25.70;99.90
17948;DHT22;9099;47.958;11.366;2023-09-18T06:30:03;25.40;99.90
17948;DHT22;9099;47.958;11.366;2023-09-18T06:32:30;25.20;99.90
17948;DHT22;9099;47.958;11.366;2023-09-18T06:34:58;24.80;99.90
17948;DHT22;9099;47.958;11.366;2023-09-18T06:37:25;24.50;99.90
17948;DHT22;9099;47.958;11.366;2023-09-18T06:39:52;24.50;99.90
17948;DHT22;9099;47.958;11.366;2023-09-18T06:42:19;24.60;99.90
17948;DHT22;9099;47.958;11.366;2023-09-18T06:44:46;24.80;99.90
17948;DHT22;9099;47.958;11.366;2023-09-18T06:47:13;25.20;99.90
17948;DHT22;9099;47.958;11.366;2023-09-18T06:49:41;25.60;99.90
17948;DHT22;9099;47.958;11.366;2023-09-18T06:52:09;26.00;99.90
17948;DHT22;9099;47.958;11.366;2023-09-18T06:54:37;26.30;99.90
17948;DHT22;9099;47.958;11.366;2023-09-18T06:57:04;26.70;99.90
17948;DHT22;9099;47.958;11.366;2023-09-18T06:59:31;27.30;99.90
17948;DHT22;9099;47.958;11.366;2023-09-18T07:02:00;27.60;99.90
17948;DHT22;9099;47.958;11.366;2023-09-18T07:04:27;28.20;99.90
17948;DHT22;9099;47.958;11.366;2023-09-18T07:06:54;29.00;99.90
17948;DHT22;9099;47.958;11.366;2023-09-18T07:09:24;29.50;99.90
17948;DHT22;9099;47.958;11.366;2023-09-18T07:11:51;30.10;99.90
17948;DHT22;9099;47.958;11.366;2023-09-18T07:14:18;30.10;99.90
17948;DHT22;9099;47.958;11.366;2023-09-18T07:16:45;30.50;99.90
17948;DHT22;9099;47.958;11.366;2023-09-18T07:19:12;30.80;99.90
17948;DHT22;9099;47.958;11.366;2023-09-18T07:21:42;30.90;99.90
17948;DHT22;9099;47.958;11.366;2023-09-18T07:24:10;31.10;99.90
17948;DHT22;9099;47.958;11.366;2023-09-18T07:26:44;31.00;99.90
17948;DHT22;9099;47.958;11.366;2023-09-18T07:29:12;31.40;99.90
17948;DHT22;9099;47.958;11.366;2023-09-18T07:31:40;31.50;99.90
17948;DHT22;9099;47.958;11.366;2023-09-18T07:34:08;31.50;99.90
17948;DHT22;9099;47.958;11.366;2023-09-18T07:36:35;31.70;99.90
17948;DHT22;9099;47.958;11.366;2023-09-18T07:39:02;32.00;99.90
17948;DHT22;9099;47.958;11.366;2023-09-18T07:41:29;32.80;99.90
17948;DHT22;9099;47.958;11.366;2023-09-18T07:43:58;33.20;99.90
17948;DHT22;9099;47.958;11.366;2023-09-18T07:46:25;33.20;99.90
17948;DHT22;9099;47.958;11.366;2023-09-18T07:48:52;33.00;99.90
17948;DHT22;9099;47.958;11.366;2023-09-18T07:51:19;32.90;99.90
17948;DHT22;9099;47.958;11.366;2023-09-18T07:53:45;32.70;99.90
17948;DHT22;9099;47.958;11.366;2023-09-18T07:56:12;32.30;99.90
17948;DHT22;9099;47.958;11.366;2023-09-18T07:58:39;31.40;99.90
17948;DHT22;9099;47.958;11.366;2023-09-18T08:01:08;30.60;99.90
17948;DHT22;9099;47.958;11.366;2023-09-18T08:03:35;29.90;99.90
17948;DHT22;9099;47.958;11.366;2023-09-18T08:06:02;29.20;99.90
17948;DHT22;9099;47.958;11.366;2023-09-18T08:08:30;28.40;99.90
17948;DHT22;9099;47.958;11.366;2023-09-18T08:11:00;27.80;99.90
17948;DHT22;9099;47.958;11.366;2023-09-18T08:13:28;27.20;99.90
17948;DHT22;9099;47.958;11.366;2023-09-18T08:15:56;26.80;99.90
17948;DHT22;9099;47.958;11.366;2023-09-18T08:18:24;26.40;99.90
17948;DHT22;9099;47.958;11.366;2023-09-18T08:20:52;26.10;99.90
17948;DHT22;9099;47.958;11.366;2023-09-18T08:23:20;25.70;99.90
17948;DHT22;9099;47.958;11.366;2023-09-18T08:25:47;25.40;99.90
17948;DHT22;9099;47.958;11.366;2023-09-18T08:28:16;25.10;99.90
17948;DHT22;9099;47.958;11.366;2023-09-18T08:30:43;24.80;99.90
17948;DHT22;9099;47.958;11.366;2023-09-18T08:33:12;24.80;99.90
17948;DHT22;9099;47.958;11.366;2023-09-18T08:35:41;24.80;99.90
17948;DHT22;9099;47.958;11.366;2023-09-18T08:38:08;24.80;99.90
17948;DHT22;9099;47.958;11.366;2023-09-18T08:40:35;24.60;99.90
17948;DHT22;9099;47.958;11.366;2023-09-18T08:43:02;24.50;99.90
17948;DHT22;9099;47.958;11.366;2023-09-18T08:45:35;24.40;99.90
17948;DHT22;9099;47.958;11.366;2023-09-18T08:48:03;24.40;99.90
17948;DHT22;9099;47.958;11.366;2023-09-18T08:50:30;24.30;99.90
17948;DHT22;9099;47.958;11.366;2023-09-18T08:52:59;24.30;99.90
17948;DHT22;9099;47.958;11.366;2023-09-18T08:55:26;24.30;99.90
17948;DHT22;9099;47.958;11.366;2023-09-18T08:57:55;24.20;99.90
17948;DHT22;9099;47.958;11.366;2023-09-18T09:00:24;24.20;99.90
17948;DHT22;9099;47.958;11.366;2023-09-18T09:02:51;24.10;99.90
17948;DHT22;9099;47.958;11.366;2023-09-18T09:05:20;24.20;99.90
17948;DHT22;9099;47.958;11.366;2023-09-18T09:07:48;24.20;99.90
17948;DHT22;9099;47.958;11.366;2023-09-18T09:10:16;24.30;99.90
17948;DHT22;9099;47.958;11.366;2023-09-18T09:12:48;24.30;99.90
17948;DHT22;9099;47.958;11.366;2023-09-18T09:15:15;24.40;99.90
17948;DHT22;9099;47.958;11.366;2023-09-18T09:17:42;24.50;99.90
17948;DHT22;9099;47.958;11.366;2023-09-18T09:20:10;24.90;99.90
17948;DHT22;9099;47.958;11.366;2023-09-18T09:22:38;25.20;99.90
17948;DHT22;9099;47.958;11.366;2023-09-18T09:25:23;25.30;99.90
17948;DHT22;9099;47.958;11.366;2023-09-18T09:27:52;25.50;99.90
17948;DHT22;9099;47.958;11.366;2023-09-18T09:30:20;25.60;99.90
17948;DHT22;9099;47.958;11.366;2023-09-18T09:32:48;25.60;99.90
17948;DHT22;9099;47.958;11.366;2023-09-18T09:35:21;25.60;99.90
17948;DHT22;9099;47.958;11.366;2023-09-18T09:37:49;25.70;99.90
17948;DHT22;9099;47.958;11.366;2023-09-18T09:40:19;25.80;99.90
17948;DHT22;9099;47.958;11.366;2023-09-18T09:42:48;25.60;99.90
17948;DHT22;9099;47.958;11.366;2023-09-18T09:45:18;25.60;99.90
17948;DHT22;9099;47.958;11.366;2023-09-18T09:47:45;25.80;99.90
17948;DHT22;9099;47.958;11.366;2023-09-18T09:50:13;25.90;99.90
17948;DHT22;9099;47.958;11.366;2023-09-18T09:52:43;25.80;99.90
17948;DHT22;9099;47.958;11.366;2023-09-18T09:55:21;25.60;99.90
17948;DHT22;9099;47.958;11.366;2023-09-18T09:57:51;25.30;99.90
17948;DHT22;9099;47.958;11.366;2023-09-18T10:00:19;25.30;99.90
17948;DHT22;9099;47.958;11.366;2023-09-18T10:02:56;25.30;99.90
17948;DHT22;9099;47.958;11.366;2023-09-18T10:05:26;25.30;99.90
17948;DHT22;9099;47.958;11.366;2023-09-18T10:07:55;25.30;99.90
17948;DHT22;9099;47.958;11.366;2023-09-18T10:10:25;25.50;99.90
17948;DHT22;9099;47.958;11.366;2023-09-18T10:12:55;25.70;99.90
17948;DHT22;9099;47.958;11.366;2023-09-18T10:15:23;25.80;99.90
17948;DHT22;9099;47.958;11.366;2023-09-18T10:17:54;25.80;99.90
17948;DHT22;9099;47.958;11.366;2023-09-18T10:20:25;25.70;99.90
17948;DHT22;9099;47.958;11.366;2023-09-18T10:22:57;25.70;99.90
17948;DHT22;9099;47.958;11.366;2023-09-18T10:25:29;25.70;99.90
17948;DHT22;9099;47.958;11.366;2023-09-18T10:27:59;25.50;99.90
17948;DHT22;9099;47.958;11.366;2023-09-18T10:30:29;25.40;99.90
17948;DHT22;9099;47.958;11.366;2023-09-18T10:32:56;25.30;99.90
17948;DHT22;9099;47.958;11.366;2023-09-18T10:35:25;25.20;99.90
17948;DHT22;9099;47.958;11.366;2023-09-18T10:37:54;25.10;99.90
17948;DHT22;9099;47.958;11.366;2023-09-18T10:40:21;25.00;99.90
17948;DHT22;9099;47.958;11.366;2023-09-18T10:42:50;24.80;99.90
17948;DHT22;9099;47.958;11.366;2023-09-18T10:45:20;24.70;99.90
17948;DHT22;9099;47.958;11.366;2023-09-18T10:47:48;24.70;99.90
17948;DHT22;9099;47.958;11.366;2023-09-18T10:50:23;24.60;99.90
17948;DHT22;9099;47.958;11.366;2023-09-18T10:52:51;24.70;99.90
17948;DHT22;9099;47.958;11.366;2023-09-18T10:55:18;24.60;99.90
17948;DHT22;9099;47.958;11.366;2023-09-18T10:57:51;24.40;99.90
17948;DHT22;9099;47.958;11.366;2023-09-18T11:00:21;24.20;99.90
17948;DHT22;9099;47.958;11.366;2023-09-18T11:02:51;24.10;99.90
17948;DHT22;9099;47.958;11.366;2023-09-18T11:05:32;23.90;99.90
17948;DHT22;9099;47.958;11.366;2023-09-18T11:08:27;23.80;99.90
17948;DHT22;9099;47.958;11.366;2023-09-18T11:10:56;23.60;99.90
17948;DHT22;9099;47.958;11.366;2023-09-18T11:13:31;23.40;99.90
17948;DHT22;9099;47.958;11.366;2023-09-18T11:16:02;23.30;99.90
17948;DHT22;9099;47.958;11.366;2023-09-18T11:18:39;23.10;99.90
17948;DHT22;9099;47.958;11.366;2023-09-18T11:21:10;22.90;99.90
17948;DHT22;9099;47.958;11.366;2023-09-18T11:23:39;22.80;99.90
17948;DHT22;9099;47.958;11.366;2023-09-18T11:26:09;22.70;99.90
17948;DHT22;9099;47.958;11.366;2023-09-18T11:28:37;22.50;99.90
17948;DHT22;9099;47.958;11.366;2023-09-18T11:31:06;22.20;99.90
17948;DHT22;9099;47.958;11.366;2023-09-18T11:33:37;22.10;99.90
17948;DHT22;9099;47.958;11.366;2023-09-18T11:36:07;22.00;99.90
17948;DHT22;9099;47.958;11.366;2023-09-18T11:38:51;21.90;99.90
17948;DHT22;9099;47.958;11.366;2023-09-18T11:41:22;21.70;99.90
17948;DHT22;9099;47.958;11.366;2023-09-18T11:43:50;21.60;99.90
17948;DHT22;9099;47.958;11.366;2023-09-18T11:46:21;21.40;99.90
17948;DHT22;9099;47.958;11.366;2023-09-18T11:48:51;21.30;99.90
17948;DHT22;9099;47.958;11.366;2023-09-18T11:51:22;21.10;99.90
17948;DHT22;9099;47.958;11.366;2023-09-18T11:53:54;20.90;99.90
17948;DHT22;9099;47.958;11.366;2023-09-18T11:56:21;20.80;99.90
17948;DHT22;9099;47.958;11.366;2023-09-18T11:58:49;20.60;99.90
17948;DHT22;9099;47.958;11.366;2023-09-18T12:01:17;20.50;99.90
17948;DHT22;9099;47.958;11.366;2023-09-18T12:03:45;20.40;99.90
17948;DHT22;9099;47.958;11.366;2023-09-18T12:06:14;20.30;99.90
17948;DHT22;9099;47.958;11.366;2023-09-18T12:08:41;20.10;99.90
17948;DHT22;9099;47.958;11.366;2023-09-18T12:11:09;20.00;99.90
17948;DHT22;9099;47.958;11.366;2023-09-18T12:13:36;19.90;99.90
17948;DHT22;9099;47.958;11.366;2023-09-18T12:16:04;19.80;99.90
17948;DHT22;9099;47.958;11.366;2023-09-18T12:18:31;19.70;99.90
17948;DHT22;9099;47.958;11.366;2023-09-18T12:21:02;19.70;99.90
17948;DHT22;9099;47.958;11.366;2023-09-18T12:23:37;19.60;99.90
17948;DHT22;9099;47.958;11.366;2023-09-18T12:26:04;19.40;99.90
17948;DHT22;9099;47.958;11.366;2023-09-18T12:28:33;19.30;99.90
17948;DHT22;9099;47.958;11.366;2023-09-18T12:31:00;19.30;99.90
17948;DHT22;9099;47.958;11.366;2023-09-18T12:33:33;19.20;99.90
17948;DHT22;9099;47.958;11.366;2023-09-18T12:36:02;19.10;99.90
17948;DHT22;9099;47.958;11.366;2023-09-18T12:38:30;19.10;99.90
17948;DHT22;9099;47.958;11.366;2023-09-18T12:40:58;19.20;99.90
17948;DHT22;9099;47.958;11.366;2023-09-18T12:43:34;19.30;99.90
17948;DHT22;9099;47.958;11.366;2023-09-18T12:46:02;19.30;99.90
17948;DHT22;9099;47.958;11.366;2023-09-18T12:48:30;19.30;99.90
17948;DHT22;9099;47.958;11.366;2023-09-18T12:51:04;19.20;99.90
17948;DHT22;9099;47.958;11.366;2023-09-18T12:53:31;19.10;99.90
17948;DHT22;9099;47.958;11.366;2023-09-18T12:56:06;19.10;99.90
17948;DHT22;9099;47.958;11.366;2023-09-18T12:58:33;19.10;99.90
17948;DHT22;9099;47.958;11.366;2023-09-18T13:01:04;19.10;99.90
17948;DHT22;9099;47.958;11.366;2023-09-18T13:03:34;19.10;99.90
17948;DHT22;9099;47.958;11.366;2023-09-18T13:06:09;19.10;99.90
17948;DHT22;9099;47.958;11.366;2023-09-18T13:08:37;19.10;99.90
17948;DHT22;9099;47.958;11.366;2023-09-18T13:11:04;19.20;99.90
17948;DHT22;9099;47.958;11.366;2023-09-18T13:13:32;19.10;99.90
17948;DHT22;9099;47.958;11.366;2023-09-18T13:16:00;19.20;99.90
17948;DHT22;9099;47.958;11.366;2023-09-18T13:18:29;19.20;99.90
17948;DHT22;9099;47.958;11.366;2023-09-18T13:20:57;19.20;99.90
17948;DHT22;9099;47.958;11.366;2023-09-18T13:23:29;19.20;99.90
17948;DHT22;9099;47.958;11.366;2023-09-18T13:26:00;19.30;99.90
17948;DHT22;9099;47.958;11.366;2023-09-18T13:28:28;19.30;99.90
17948;DHT22;9099;47.958;11.366;2023-09-18T13:30:57;19.30;99.90
17948;DHT22;9099;47.958;11.366;2023-09-18T13:33:25;19.30;99.90
17948;DHT22;9099;47.958;11.366;2023-09-18T13:35:53;19.40;99.90
17948;DHT22;9099;47.958;11.366;2023-09-18T13:38:21;19.50;99.90
17948;DHT22;9099;47.958;11.366;2023-09-18T13:40:50;19.50;99.90
17948;DHT22;9099;47.958;11.366;2023-09-18T13:43:17;19.50;99.90
17948;DHT22;9099;47.958;11.366;2023-09-18T13:45:47;19.80;99.90
17948;DHT22;9099;47.958;11.366;2023-09-18T13:48:17;20.10;99.90
17948;DHT22;9099;47.958;11.366;2023-09-18T13:50:44;20.50;99.90
17948;DHT22;9099;47.958;11.366;2023-09-18T13:53:12;20.80;99.90
17948;DHT22;9099;47.958;11.366;2023-09-18T13:55:39;21.00;99.90
17948;DHT22;9099;47.958;11.366;2023-09-18T13:58:08;21.00;99.90
17948;DHT22;9099;47.958;11.366;2023-09-18T14:00:35;20.80;99.90
17948;DHT22;9099;47.958;11.366;2023-09-18T14:03:02;20.90;99.90
17948;DHT22;9099;47.958;11.366;2023-09-18T14:05:29;20.90;99.90
17948;DHT22;9099;47.958;11.366;2023-09-18T14:07:56;20.70;99.90
17948;DHT22;9099;47.958;11.366;2023-09-18T14:10:26;20.70;99.90
17948;DHT22;9099;47.958;11.366;2023-09-18T14:12:53;20.60;99.90
17948;DHT22;9099;47.958;11.366;2023-09-18T14:15:21;20.60;99.90
17948;DHT22;9099;47.958;11.366;2023-09-18T14:17:48;20.60;99.90
17948;DHT22;9099;47.958;11.366;2023-09-18T14:20:15;20.60;99.90
17948;DHT22;9099;47.958;11.366;2023-09-18T14:22:44;20.60;99.90
17948;DHT22;9099;47.958;11.366;2023-09-18T14:25:12;20.50;99.90
17948;DHT22;9099;47.958;11.366;2023-09-18T14:27:39;20.40;99.90
17948;DHT22;9099;47.958;11.366;2023-09-18T14:30:07;20.30;99.90
17948;DHT22;9099;47.958;11.366;2023-09-18T14:32:36;20.20;99.90
17948;DHT22;9099;47.958;11.366;2023-09-18T14:35:05;20.10;99.90
17948;DHT22;9099;47.958;11.366;2023-09-18T14:37:34;19.90;99.90
17948;DHT22;9099;47.958;11.366;2023-09-18T14:40:01;19.90;99.90
17948;DHT22;9099;47.958;11.366;2023-09-18T14:42:29;19.80;99.90
17948;DHT22;9099;47.958;11.366;2023-09-18T14:44:56;19.80;99.90
17948;DHT22;9099;47.958;11.366;2023-09-18T14:47:22;19.80;99.90
17948;DHT22;9099;47.958;11.366;2023-09-18T14:49:51;19.80;99.90
17948;DHT22;9099;47.958;11.366;2023-09-18T14:52:18;19.90;99.90
17948;DHT22;9099;47.958;11.366;2023-09-18T14:54:49;19.90;99.90
17948;DHT22;9099;47.958;11.366;2023-09-18T14:57:15;19.80;99.90
17948;DHT22;9099;47.958;11.366;2023-09-18T14:59:42;19.70;99.90
17948;DHT22;9099;47.958;11.366;2023-09-18T15:02:12;19.70;99.90
17948;DHT22;9099;47.958;11.366;2023-09-18T15:04:40;19.60;99.90
17948;DHT22;9099;47.958;11.366;2023-09-18T15:07:09;19.50;99.90
17948;DHT22;9099;47.958;11.366;2023-09-18T15:09:36;19.30;99.90
17948;DHT22;9099;47.958;11.366;2023-09-18T15:12:04;19.20;99.90
17948;DHT22;9099;47.958;11.366;2023-09-18T15:14:33;19.10;99.90
17948;DHT22;9099;47.958;11.366;2023-09-18T15:17:00;19.00;99.90
17948;DHT22;9099;47.958;11.366;2023-09-18T15:19:27;18.90;99.90
17948;DHT22;9099;47.958;11.366;2023-09-18T15:21:54;18.90;99.90
17948;DHT22;9099;47.958;11.366;2023-09-18T15:24:24;18.80;99.90
17948;DHT22;9099;47.958;11.366;2023-09-18T15:26:51;18.80;99.90
17948;DHT22;9099;47.958;11.366;2023-09-18T15:29:18;18.70;99.90
17948;DHT22;9099;47.958;11.366;2023-09-18T15:31:45;18.60;99.90
17948;DHT22;9099;47.958;11.366;2023-09-18T15:34:13;18.60;99.90
17948;DHT22;9099;47.958;11.366;2023-09-18T15:36:42;18.60;99.90